createdAt,value
2022-12-27T00:00:04.482Z,2.70
2022-12-27T00:00:14.751Z,2.50
2022-12-27T00:00:24.760Z,2.10
2022-12-27T00:00:34.901Z,2.30
2022-12-27T00:00:44.862Z,2.50
2022-12-27T00:00:55.071Z,2.30
2022-12-27T00:01:06.013Z,2.10
2022-12-27T00:01:15.054Z,1.90
2022-12-27T00:01:25.153Z,2.40
2022-12-27T00:01:35.315Z,2.90
2022-12-27T00:01:45.393Z,2.90
2022-12-27T00:01:55.528Z,2.80
2022-12-27T00:02:05.596Z,2.20
2022-12-27T00:02:15.731Z,2.40
2022-12-27T00:02:25.857Z,2.20
2022-12-27T00:02:35.966Z,2.50
2022-12-27T00:02:46.055Z,2.00
2022-12-27T00:02:56.173Z,2.30
2022-12-27T00:03:06.301Z,2.30
2022-12-27T00:03:16.374Z,2.50
2022-12-27T00:03:26.432Z,2.10
2022-12-27T00:03:36.504Z,2.10
2022-12-27T00:03:46.629Z,2.00
2022-12-27T00:03:56.703Z,2.50
2022-12-27T00:04:06.816Z,2.20
2022-12-27T00:04:16.873Z,2.40
2022-12-27T00:04:26.957Z,2.10
2022-12-27T00:04:37.038Z,2.30
2022-12-27T00:04:47.145Z,2.30
2022-12-27T00:04:57.233Z,2.80
2022-12-27T00:05:07.331Z,2.80
2022-12-27T00:05:17.402Z,3.00
2022-12-27T00:05:27.513Z,2.50
2022-12-27T00:05:37.634Z,2.60
2022-12-27T00:05:47.736Z,2.40
2022-12-27T00:05:57.817Z,2.50
2022-12-27T00:06:07.921Z,2.50
2022-12-27T00:06:17.994Z,2.50
2022-12-27T00:06:28.085Z,3.00
2022-12-27T00:06:38.152Z,2.70
2022-12-27T00:06:48.238Z,2.70
2022-12-27T00:06:58.321Z,2.40
2022-12-27T00:07:08.453Z,2.60
2022-12-27T00:07:18.444Z,2.80
2022-12-27T00:07:28.523Z,2.80
2022-12-27T00:07:38.657Z,2.60
2022-12-27T00:07:48.743Z,2.50
2022-12-27T00:07:58.829Z,2.70
2022-12-27T00:08:08.953Z,3.00
2022-12-27T00:08:19.025Z,3.10
2022-12-27T00:08:29.123Z,2.60
2022-12-27T00:08:39.206Z,2.30
2022-12-27T00:08:49.293Z,2.40
2022-12-27T00:08:59.379Z,2.60
2022-12-27T00:09:09.472Z,2.60
2022-12-27T00:09:19.553Z,2.70
2022-12-27T00:09:29.623Z,2.70
2022-12-27T00:09:39.642Z,2.60
2022-12-27T00:09:49.742Z,2.50
2022-12-27T00:09:59.844Z,2.60
2022-12-27T00:10:09.926Z,2.70
2022-12-27T00:10:20.011Z,2.80
2022-12-27T00:10:30.093Z,2.90
2022-12-27T00:10:40.211Z,3.10
2022-12-27T00:10:50.299Z,2.80
2022-12-27T00:11:00.402Z,2.60
2022-12-27T00:11:10.490Z,2.60
2022-12-27T00:11:20.574Z,2.80
2022-12-27T00:11:30.711Z,2.70
2022-12-27T00:11:40.813Z,2.50
2022-12-27T00:11:56.308Z,2.30
2022-12-27T00:12:01.922Z,2.40
2022-12-27T00:12:12.027Z,2.30
2022-12-27T00:12:22.112Z,2.30
2022-12-27T00:12:32.183Z,2.30
2022-12-27T00:12:42.292Z,2.60
2022-12-27T00:12:52.392Z,2.60
2022-12-27T00:13:02.482Z,2.70
2022-12-27T00:13:12.552Z,2.40
2022-12-27T00:13:22.722Z,2.10
2022-12-27T00:13:32.812Z,2.10
2022-12-27T00:13:42.916Z,2.10
2022-12-27T00:13:53.001Z,2.40
2022-12-27T00:14:03.167Z,2.50
2022-12-27T00:14:13.205Z,2.40
2022-12-27T00:14:23.264Z,2.20
2022-12-27T00:14:33.356Z,2.70
2022-12-27T00:14:43.430Z,2.60
2022-12-27T00:14:53.512Z,2.80
2022-12-27T00:15:03.642Z,2.50
2022-12-27T00:15:13.753Z,2.70
2022-12-27T00:15:23.822Z,2.60
2022-12-27T00:15:33.941Z,2.30
2022-12-27T00:15:44.021Z,2.50
2022-12-27T00:15:54.127Z,2.40
2022-12-27T00:16:04.218Z,2.60
2022-12-27T00:16:14.374Z,2.30
2022-12-27T00:16:24.519Z,2.10
2022-12-27T00:16:34.670Z,1.90
2022-12-27T00:16:44.805Z,2.10
2022-12-27T00:16:54.894Z,2.40
2022-12-27T00:17:04.996Z,2.80
2022-12-27T00:17:15.153Z,2.80
2022-12-27T00:17:25.273Z,2.50
2022-12-27T00:17:35.389Z,2.40
2022-12-27T00:17:45.500Z,2.20
2022-12-27T00:17:55.690Z,2.50
2022-12-27T00:18:05.599Z,2.30
2022-12-27T00:18:15.697Z,2.50
2022-12-27T00:18:25.790Z,2.10
2022-12-27T00:18:35.881Z,2.30
2022-12-27T00:18:45.964Z,2.30
2022-12-27T00:18:56.041Z,2.20
2022-12-27T00:19:06.148Z,1.90
2022-12-27T00:19:16.231Z,1.80
2022-12-27T00:19:26.321Z,2.00
2022-12-27T00:19:36.395Z,2.20
2022-12-27T00:19:46.463Z,2.50
2022-12-27T00:19:56.542Z,2.70
2022-12-27T00:20:11.400Z,2.60
2022-12-27T00:20:16.687Z,2.60
2022-12-27T00:20:26.761Z,2.20
2022-12-27T00:20:36.850Z,2.10
2022-12-27T00:20:46.931Z,2.10
2022-12-27T00:20:57.001Z,2.40
2022-12-27T00:21:07.080Z,3.10
2022-12-27T00:21:17.188Z,2.80
2022-12-27T00:21:27.349Z,2.80
2022-12-27T00:21:37.405Z,2.10
2022-12-27T00:21:47.474Z,2.30
2022-12-27T00:21:57.537Z,2.30
2022-12-27T00:22:07.641Z,2.20
2022-12-27T00:22:17.711Z,2.20
2022-12-27T00:22:27.781Z,2.30
2022-12-27T00:22:37.848Z,2.50
2022-12-27T00:22:47.927Z,2.60
2022-12-27T00:22:57.993Z,2.40
2022-12-27T00:23:08.075Z,2.30
2022-12-27T00:23:18.151Z,2.40
2022-12-27T00:23:28.270Z,2.60
2022-12-27T00:23:38.364Z,2.90
2022-12-27T00:23:48.450Z,2.70
2022-12-27T00:23:58.531Z,2.70
2022-12-27T00:24:08.613Z,2.30
2022-12-27T00:24:18.711Z,2.90
2022-12-27T00:24:28.811Z,2.90
2022-12-27T00:24:38.833Z,3.50
2022-12-27T00:24:48.885Z,3.00
2022-12-27T00:24:58.949Z,3.00
2022-12-27T00:25:09.046Z,2.40
2022-12-27T00:25:19.111Z,2.20
2022-12-27T00:25:29.290Z,2.40
2022-12-27T00:25:39.421Z,2.60
2022-12-27T00:25:49.588Z,2.30
2022-12-27T00:25:59.669Z,2.10
2022-12-27T00:26:09.730Z,2.00
2022-12-27T00:26:19.800Z,2.10
2022-12-27T00:26:29.873Z,2.40
2022-12-27T00:26:39.951Z,2.30
2022-12-27T00:26:50.108Z,2.20
2022-12-27T00:27:00.184Z,2.40
2022-12-27T00:27:10.254Z,2.40
2022-12-27T00:27:20.337Z,2.60
2022-12-27T00:27:30.388Z,2.40
2022-12-27T00:27:40.466Z,2.50
2022-12-27T00:27:50.548Z,2.40
2022-12-27T00:28:00.682Z,2.70
2022-12-27T00:28:10.750Z,2.90
2022-12-27T00:28:20.828Z,2.50
2022-12-27T00:28:30.964Z,2.00
2022-12-27T00:28:41.030Z,1.90
2022-12-27T00:28:51.116Z,2.00
2022-12-27T00:29:01.194Z,2.70
2022-12-27T00:29:11.313Z,2.40
2022-12-27T00:29:21.392Z,2.50
2022-12-27T00:29:31.468Z,2.10
2022-12-27T00:29:41.571Z,2.20
2022-12-27T00:29:51.651Z,2.70
2022-12-27T00:30:01.737Z,2.60
2022-12-27T00:30:12.218Z,2.60
2022-12-27T00:30:21.975Z,2.30
2022-12-27T00:30:32.082Z,2.50
2022-12-27T00:30:42.239Z,2.70
2022-12-27T00:30:52.349Z,3.00
2022-12-27T00:31:02.452Z,2.80
2022-12-27T00:31:12.618Z,2.70
2022-12-27T00:31:22.721Z,2.60
2022-12-27T00:31:32.897Z,2.60
2022-12-27T00:31:42.879Z,2.50
2022-12-27T00:31:53.041Z,2.40
2022-12-27T00:32:03.178Z,2.30
2022-12-27T00:32:13.269Z,2.40
2022-12-27T00:32:23.350Z,2.30
2022-12-27T00:32:33.453Z,2.30
2022-12-27T00:32:43.534Z,2.20
2022-12-27T00:32:53.610Z,2.20
2022-12-27T00:33:03.687Z,2.00
2022-12-27T00:33:13.808Z,2.10
2022-12-27T00:33:23.940Z,2.10
2022-12-27T00:33:34.065Z,2.20
2022-12-27T00:33:44.132Z,2.40
2022-12-27T00:33:54.219Z,2.30
2022-12-27T00:34:04.312Z,2.60
2022-12-27T00:34:14.380Z,2.70
2022-12-27T00:34:24.460Z,3.00
2022-12-27T00:34:34.545Z,2.90
2022-12-27T00:34:44.609Z,3.00
2022-12-27T00:34:54.693Z,3.00
2022-12-27T00:35:04.760Z,3.20
2022-12-27T00:35:14.829Z,2.80
2022-12-27T00:35:24.901Z,3.20
2022-12-27T00:35:34.992Z,3.10
2022-12-27T00:35:45.060Z,3.00
2022-12-27T00:35:55.177Z,2.50
2022-12-27T00:36:05.298Z,2.10
2022-12-27T00:36:15.357Z,2.30
2022-12-27T00:36:25.407Z,2.30
2022-12-27T00:36:35.498Z,2.10
2022-12-27T00:36:45.578Z,1.90
2022-12-27T00:36:55.679Z,1.80
2022-12-27T00:37:05.742Z,2.10
2022-12-27T00:37:15.819Z,2.50
2022-12-27T00:37:25.920Z,2.60
2022-12-27T00:37:36.019Z,2.40
2022-12-27T00:37:46.139Z,2.30
2022-12-27T00:37:56.198Z,2.60
2022-12-27T00:38:06.269Z,2.80
2022-12-27T00:38:16.344Z,2.80
2022-12-27T00:38:26.411Z,2.60
2022-12-27T00:42:31.851Z,0.00
2022-12-27T00:42:42.100Z,2.40
2022-12-27T00:42:51.941Z,2.20
2022-12-27T00:43:01.986Z,1.90
2022-12-27T00:43:12.018Z,2.10
2022-12-27T00:43:22.117Z,2.30
2022-12-27T00:43:32.171Z,2.30
2022-12-27T00:43:42.226Z,2.70
2022-12-27T00:43:52.336Z,2.80
2022-12-27T00:44:02.338Z,2.70
2022-12-27T00:44:12.398Z,2.30
2022-12-27T00:44:22.460Z,2.40
2022-12-27T00:44:32.622Z,2.60
2022-12-27T00:44:42.660Z,2.80
2022-12-27T00:44:52.701Z,2.30
2022-12-27T00:45:02.779Z,2.30
2022-12-27T00:45:12.870Z,2.20
2022-12-27T00:45:23.021Z,2.30
2022-12-27T00:45:32.964Z,2.40
2022-12-27T00:45:43.090Z,2.40
2022-12-27T00:45:53.177Z,2.70
2022-12-27T00:46:03.271Z,2.70
2022-12-27T00:46:13.401Z,2.70
2022-12-27T00:46:23.539Z,2.40
2022-12-27T00:46:33.645Z,2.60
2022-12-27T00:46:43.762Z,2.60
2022-12-27T00:46:53.895Z,2.90
2022-12-27T00:47:04.060Z,2.60
2022-12-27T00:47:14.139Z,2.50
2022-12-27T00:47:24.260Z,2.10
2022-12-27T00:47:34.384Z,2.10
2022-12-27T00:47:44.494Z,2.30
2022-12-27T00:47:54.604Z,2.40
2022-12-27T00:48:04.767Z,2.30
2022-12-27T00:48:14.898Z,2.20
2022-12-27T00:48:25.025Z,2.30
2022-12-27T00:48:35.130Z,2.30
2022-12-27T00:48:45.249Z,2.10
2022-12-27T00:48:55.406Z,2.00
2022-12-27T00:49:05.532Z,2.20
2022-12-27T00:49:15.635Z,2.30
2022-12-27T00:49:25.756Z,2.50
2022-12-27T00:49:35.868Z,2.00
2022-12-27T00:49:45.994Z,2.20
2022-12-27T00:49:56.067Z,1.90
2022-12-27T00:50:06.171Z,2.20
2022-12-27T00:50:16.295Z,2.20
2022-12-27T00:50:26.440Z,2.20
2022-12-27T00:50:36.536Z,2.20
2022-12-27T00:50:46.658Z,2.20
2022-12-27T00:50:56.761Z,2.30
2022-12-27T00:51:06.852Z,2.20
2022-12-27T00:51:16.953Z,2.00
2022-12-27T00:51:27.065Z,2.20
2022-12-27T00:51:37.157Z,2.20
2022-12-27T00:51:47.303Z,2.50
2022-12-27T00:51:57.416Z,2.70
2022-12-27T00:52:07.536Z,2.90
2022-12-27T00:52:17.631Z,2.60
2022-12-27T00:52:27.746Z,2.40
2022-12-27T00:52:37.761Z,2.30
2022-12-27T00:52:47.898Z,2.30
2022-12-27T00:52:58.011Z,2.30
2022-12-27T00:53:08.112Z,2.30
2022-12-27T00:53:18.217Z,2.30
2022-12-27T00:53:28.304Z,2.00
2022-12-27T00:53:38.416Z,2.30
2022-12-27T00:53:48.538Z,2.30
2022-12-27T00:53:58.655Z,2.60
2022-12-27T00:54:08.794Z,2.20
2022-12-27T00:54:18.934Z,2.20
2022-12-27T00:54:29.028Z,2.20
2022-12-27T00:54:39.171Z,2.30
2022-12-27T00:54:49.290Z,2.00
2022-12-27T00:54:59.413Z,1.90
2022-12-27T00:55:09.530Z,1.90
2022-12-27T00:55:19.643Z,2.40
2022-12-27T00:55:29.744Z,2.30
2022-12-27T00:55:39.857Z,2.30
2022-12-27T00:55:49.956Z,2.10
2022-12-27T00:56:00.072Z,2.10
2022-12-27T00:56:10.180Z,2.40
2022-12-27T00:56:20.312Z,2.10
2022-12-27T00:56:30.422Z,2.50
2022-12-27T00:56:40.547Z,2.60
2022-12-27T00:56:50.653Z,2.70
2022-12-27T00:57:00.763Z,2.40
2022-12-27T00:57:10.890Z,2.50
2022-12-27T00:57:21.009Z,2.60
2022-12-27T00:57:31.088Z,2.80
2022-12-27T00:57:41.185Z,2.70
2022-12-27T00:57:51.285Z,2.60
2022-12-27T00:58:01.398Z,2.90
2022-12-27T00:58:11.506Z,2.60
2022-12-27T00:58:21.590Z,2.60
2022-12-27T00:58:31.678Z,2.10
2022-12-27T00:58:41.786Z,2.70
2022-12-27T00:58:51.905Z,2.30
2022-12-27T00:59:02.027Z,2.80
2022-12-27T00:59:12.146Z,2.50
2022-12-27T00:59:22.260Z,2.80
2022-12-27T00:59:32.391Z,2.50
2022-12-27T00:59:42.507Z,2.90
2022-12-27T00:59:52.596Z,2.50
2022-12-27T01:00:09.551Z,2.30
2022-12-27T01:00:13.732Z,1.90
2022-12-27T01:00:23.808Z,2.10
2022-12-27T01:00:33.913Z,2.10
2022-12-27T01:00:44.175Z,2.50
2022-12-27T01:00:54.186Z,2.70
2022-12-27T01:01:04.201Z,3.30
2022-12-27T01:01:14.365Z,3.10
2022-12-27T01:01:24.367Z,3.20
2022-12-27T01:01:34.520Z,3.10
2022-12-27T01:01:44.620Z,3.10
2022-12-27T01:01:54.756Z,2.80
2022-12-27T01:02:04.700Z,2.10
2022-12-27T01:02:14.648Z,2.20
2022-12-27T01:02:24.760Z,2.20
2022-12-27T01:02:34.896Z,2.30
2022-12-27T01:02:45.005Z,2.10
2022-12-27T01:02:55.140Z,2.00
2022-12-27T01:03:05.287Z,2.00
2022-12-27T01:03:15.395Z,2.00
2022-12-27T01:03:25.573Z,2.00
2022-12-27T01:03:35.683Z,2.40
2022-12-27T01:03:46.026Z,2.70
2022-12-27T01:03:55.910Z,3.00
2022-12-27T01:04:06.077Z,2.30
2022-12-27T01:04:16.175Z,2.00
2022-12-27T01:04:26.280Z,2.20
2022-12-27T01:04:36.381Z,2.40
2022-12-27T01:04:46.511Z,2.50
2022-12-27T01:04:56.618Z,2.20
2022-12-27T01:05:06.735Z,2.40
2022-12-27T01:05:16.739Z,2.60
2022-12-27T01:05:26.866Z,2.50
2022-12-27T01:05:36.975Z,2.50
2022-12-27T01:05:47.097Z,2.10
2022-12-27T01:05:57.206Z,2.00
2022-12-27T01:06:07.304Z,1.80
2022-12-27T01:06:17.428Z,2.00
2022-12-27T01:06:27.546Z,1.90
2022-12-27T01:06:37.579Z,2.30
2022-12-27T01:06:47.690Z,2.50
2022-12-27T01:06:57.831Z,2.90
2022-12-27T01:07:07.958Z,2.80
2022-12-27T01:07:18.066Z,3.00
2022-12-27T01:07:28.187Z,2.80
2022-12-27T01:07:38.302Z,2.70
2022-12-27T01:07:48.397Z,2.80
2022-12-27T01:07:58.528Z,2.70
2022-12-27T01:08:08.635Z,2.60
2022-12-27T01:08:18.734Z,2.20
2022-12-27T01:08:28.858Z,2.30
2022-12-27T01:08:38.975Z,2.20
2022-12-27T01:08:49.078Z,2.30
2022-12-27T01:08:59.186Z,2.40
2022-12-27T01:09:09.306Z,2.60
2022-12-27T01:09:19.424Z,2.20
2022-12-27T01:09:29.565Z,2.30
2022-12-27T01:09:39.682Z,2.30
2022-12-27T01:09:49.794Z,2.60
2022-12-27T01:09:59.819Z,3.10
2022-12-27T01:10:09.913Z,3.00
2022-12-27T01:10:20.057Z,2.60
2022-12-27T01:10:30.130Z,2.50
2022-12-27T01:10:40.247Z,2.80
2022-12-27T01:10:50.372Z,2.90
2022-12-27T01:11:00.519Z,2.60
2022-12-27T01:11:10.642Z,2.20
2022-12-27T01:11:20.759Z,2.20
2022-12-27T01:11:30.851Z,2.40
2022-12-27T01:11:40.971Z,2.70
2022-12-27T01:11:51.087Z,2.70
2022-12-27T01:12:01.175Z,2.30
2022-12-27T01:12:11.276Z,2.10
2022-12-27T01:12:21.375Z,1.90
2022-12-27T01:12:31.487Z,2.20
2022-12-27T01:12:41.562Z,2.00
2022-12-27T01:12:51.688Z,2.00
2022-12-27T01:13:01.803Z,2.30
2022-12-27T01:13:11.896Z,2.50
2022-12-27T01:13:21.992Z,2.60
2022-12-27T01:13:32.179Z,2.20
2022-12-27T01:13:42.083Z,2.20
2022-12-27T01:13:52.229Z,2.30
2022-12-27T01:14:02.348Z,2.10
2022-12-27T01:14:12.460Z,2.10
2022-12-27T01:14:22.563Z,1.80
2022-12-27T01:14:32.726Z,2.10
2022-12-27T01:14:42.795Z,2.30
2022-12-27T01:14:52.942Z,2.20
2022-12-27T01:15:03.035Z,2.60
2022-12-27T01:15:13.145Z,2.60
2022-12-27T01:15:23.268Z,2.40
2022-12-27T01:15:33.372Z,2.20
2022-12-27T01:15:43.516Z,1.90
2022-12-27T01:15:53.633Z,2.50
2022-12-27T01:16:03.733Z,2.30
2022-12-27T01:16:13.877Z,2.80
2022-12-27T01:16:24.027Z,2.50
2022-12-27T01:16:34.163Z,2.60
2022-12-27T01:16:44.163Z,2.20
2022-12-27T01:16:54.145Z,2.30
2022-12-27T01:17:04.287Z,2.60
2022-12-27T01:17:14.435Z,2.60
2022-12-27T01:17:24.575Z,2.60
2022-12-27T01:17:34.736Z,2.30
2022-12-27T01:17:44.845Z,2.20
2022-12-27T01:17:54.956Z,2.10
2022-12-27T01:18:05.036Z,2.30
2022-12-27T01:18:15.168Z,2.30
2022-12-27T01:18:25.330Z,2.40
2022-12-27T01:18:35.425Z,2.80
2022-12-27T01:18:45.526Z,2.50
2022-12-27T01:18:55.661Z,2.10
2022-12-27T01:19:05.765Z,1.80
2022-12-27T01:19:16.377Z,2.40
2022-12-27T01:19:25.972Z,2.40
2022-12-27T01:19:36.071Z,2.40
2022-12-27T01:19:46.221Z,2.30
2022-12-27T01:19:56.324Z,2.30
2022-12-27T01:20:06.495Z,2.20
2022-12-27T01:20:16.608Z,2.40
2022-12-27T01:20:26.761Z,2.50
2022-12-27T01:20:36.859Z,3.00
2022-12-27T01:20:46.965Z,2.90
2022-12-27T01:20:57.097Z,3.10
2022-12-27T01:21:07.193Z,2.60
2022-12-27T01:21:17.310Z,2.50
2022-12-27T01:21:27.412Z,2.20
2022-12-27T01:21:37.547Z,2.20
2022-12-27T01:21:47.634Z,2.40
2022-12-27T01:21:57.736Z,2.70
2022-12-27T01:22:07.882Z,2.50
2022-12-27T01:22:17.965Z,2.70
2022-12-27T01:22:28.074Z,2.40
2022-12-27T01:22:38.175Z,2.60
2022-12-27T01:22:48.282Z,2.50
2022-12-27T01:22:58.426Z,2.90
2022-12-27T01:23:08.539Z,3.30
2022-12-27T01:23:18.665Z,3.10
2022-12-27T01:23:28.747Z,2.90
2022-12-27T01:23:38.844Z,2.50
2022-12-27T01:23:48.966Z,2.50
2022-12-27T01:23:59.107Z,2.50
2022-12-27T01:24:09.244Z,2.60
2022-12-27T01:24:19.335Z,2.80
2022-12-27T01:24:29.455Z,2.60
2022-12-27T01:24:39.581Z,2.40
2022-12-27T01:24:49.703Z,1.80
2022-12-27T01:24:59.810Z,2.10
2022-12-27T01:25:09.896Z,2.20
2022-12-27T01:25:20.009Z,2.70
2022-12-27T01:25:30.147Z,2.80
2022-12-27T01:25:40.252Z,2.70
2022-12-27T01:25:50.385Z,2.50
2022-12-27T01:26:00.495Z,2.30
2022-12-27T01:26:10.586Z,2.40
2022-12-27T01:26:20.729Z,2.60
2022-12-27T01:26:30.808Z,2.50
2022-12-27T01:26:40.913Z,2.70
2022-12-27T01:26:51.032Z,2.70
2022-12-27T01:27:01.158Z,2.70
2022-12-27T01:27:11.259Z,3.10
2022-12-27T01:27:21.344Z,3.00
2022-12-27T01:27:31.484Z,2.90
2022-12-27T01:27:41.603Z,2.20
2022-12-27T01:27:51.701Z,2.10
2022-12-27T01:28:01.784Z,2.10
2022-12-27T01:28:11.882Z,2.30
2022-12-27T01:28:21.982Z,2.60
2022-12-27T01:28:32.153Z,2.60
2022-12-27T01:28:42.096Z,2.40
2022-12-27T01:28:52.191Z,2.20
2022-12-27T01:29:02.353Z,2.70
2022-12-27T01:29:12.337Z,2.70
2022-12-27T01:29:22.437Z,2.70
2022-12-27T01:29:32.569Z,2.10
2022-12-27T01:29:42.704Z,2.30
2022-12-27T01:29:52.713Z,2.60
2022-12-27T01:30:02.824Z,2.70
2022-12-27T01:30:12.948Z,2.40
2022-12-27T01:30:23.074Z,2.10
2022-12-27T01:30:33.184Z,2.50
2022-12-27T01:30:43.301Z,2.60
2022-12-27T01:30:53.405Z,3.00
2022-12-27T01:31:03.495Z,2.40
2022-12-27T01:31:13.602Z,2.30
2022-12-27T01:31:23.649Z,2.00
2022-12-27T01:31:33.821Z,2.10
2022-12-27T01:31:43.943Z,2.10
2022-12-27T01:31:53.950Z,2.00
2022-12-27T01:32:04.053Z,2.20
2022-12-27T01:32:14.157Z,2.10
2022-12-27T01:32:24.286Z,2.20
2022-12-27T01:32:34.420Z,2.10
2022-12-27T01:32:44.531Z,2.40
2022-12-27T01:32:54.646Z,2.30
2022-12-27T01:33:04.734Z,2.70
2022-12-27T01:33:14.834Z,2.40
2022-12-27T01:33:25.015Z,2.80
2022-12-27T01:33:35.000Z,2.50
2022-12-27T01:33:45.125Z,2.30
2022-12-27T01:33:55.223Z,2.20
2022-12-27T01:34:05.330Z,2.20
2022-12-27T01:34:15.434Z,2.20
2022-12-27T01:34:25.553Z,2.00
2022-12-27T01:34:35.665Z,2.20
2022-12-27T01:34:45.764Z,2.30
2022-12-27T01:34:55.906Z,2.60
2022-12-27T01:35:06.040Z,2.60
2022-12-27T01:35:16.237Z,2.70
2022-12-27T01:35:26.187Z,2.40
2022-12-27T01:35:36.286Z,2.50
2022-12-27T01:35:46.396Z,3.00
2022-12-27T01:35:56.497Z,3.20
2022-12-27T01:36:06.604Z,3.20
2022-12-27T01:36:16.748Z,2.70
2022-12-27T01:36:26.855Z,2.90
2022-12-27T01:36:36.975Z,2.70
2022-12-27T01:36:47.094Z,2.70
2022-12-27T01:36:57.205Z,2.30
2022-12-27T01:37:07.303Z,2.40
2022-12-27T01:37:17.422Z,2.80
2022-12-27T01:37:27.524Z,2.70
2022-12-27T01:37:37.641Z,2.50
2022-12-27T01:37:47.758Z,2.10
2022-12-27T01:37:57.861Z,2.00
2022-12-27T01:38:07.966Z,2.50
2022-12-27T01:38:18.090Z,2.70
2022-12-27T01:38:28.235Z,2.80
2022-12-27T01:38:38.383Z,2.40
2022-12-27T01:38:48.481Z,2.00
2022-12-27T01:38:58.597Z,2.20
2022-12-27T01:39:08.696Z,2.20
2022-12-27T01:39:18.802Z,2.40
2022-12-27T01:39:28.805Z,2.20
2022-12-27T01:39:38.928Z,2.40
2022-12-27T01:39:49.027Z,2.60
2022-12-27T01:39:59.158Z,3.00
2022-12-27T01:40:09.263Z,3.10
2022-12-27T01:40:19.435Z,2.80
2022-12-27T01:40:29.521Z,2.70
2022-12-27T01:40:39.531Z,2.50
2022-12-27T01:40:49.670Z,2.50
2022-12-27T01:40:59.711Z,2.30
2022-12-27T01:41:09.775Z,2.10
2022-12-27T01:41:19.832Z,2.40
2022-12-27T01:41:29.881Z,2.70
2022-12-27T01:41:39.951Z,3.10
2022-12-27T01:41:50.056Z,2.80
2022-12-27T01:42:00.095Z,2.70
2022-12-27T01:42:10.176Z,2.70
2022-12-27T01:42:20.248Z,2.90
2022-12-27T01:42:30.308Z,2.60
2022-12-27T01:42:40.634Z,2.60
2022-12-27T01:42:50.540Z,2.40
2022-12-27T01:43:00.663Z,2.60
2022-12-27T01:43:10.738Z,2.30
2022-12-27T01:43:20.795Z,2.10
2022-12-27T01:43:30.839Z,2.10
2022-12-27T01:43:40.904Z,2.20
2022-12-27T01:43:50.962Z,2.50
2022-12-27T01:44:01.076Z,2.40
2022-12-27T01:44:11.178Z,2.60
2022-12-27T01:44:21.233Z,2.60
2022-12-27T01:44:31.279Z,2.70
2022-12-27T01:44:41.355Z,2.40
2022-12-27T01:44:51.405Z,2.30
2022-12-27T01:45:01.463Z,2.40
2022-12-27T01:45:11.494Z,2.40
2022-12-27T01:45:21.575Z,2.70
2022-12-27T01:45:31.660Z,2.40
2022-12-27T01:45:41.762Z,2.60
2022-12-27T01:45:51.957Z,2.70
2022-12-27T01:46:01.933Z,2.80
2022-12-27T01:46:12.069Z,2.80
2022-12-27T01:46:22.121Z,2.30
2022-12-27T01:46:32.170Z,2.40
2022-12-27T01:46:42.239Z,2.10
2022-12-27T01:46:52.283Z,2.30
2022-12-27T01:47:02.351Z,2.40
2022-12-27T01:47:12.409Z,3.00
2022-12-27T01:47:22.449Z,3.00
2022-12-27T01:47:32.510Z,2.80
2022-12-27T01:47:42.592Z,2.50
2022-12-27T01:47:52.601Z,2.60
2022-12-27T01:48:02.709Z,2.50
2022-12-27T01:48:12.839Z,2.80
2022-12-27T01:48:22.957Z,2.80
2022-12-27T01:48:33.064Z,2.80
2022-12-27T01:48:43.203Z,2.50
2022-12-27T01:48:53.320Z,2.40
2022-12-27T01:49:05.264Z,2.50
2022-12-27T01:49:13.600Z,2.80
2022-12-27T01:49:23.721Z,3.00
2022-12-27T01:49:33.838Z,2.90
2022-12-27T01:49:43.938Z,2.60
2022-12-27T01:49:54.059Z,2.30
2022-12-27T01:50:04.232Z,2.60
2022-12-27T01:50:14.340Z,3.10
2022-12-27T01:50:24.457Z,3.00
2022-12-27T01:50:34.586Z,2.80
2022-12-27T01:50:44.692Z,2.40
2022-12-27T01:50:54.821Z,2.60
2022-12-27T01:51:04.842Z,3.00
2022-12-27T01:51:14.985Z,3.60
2022-12-27T01:51:25.087Z,4.20
2022-12-27T01:51:35.188Z,3.90
2022-12-27T01:51:45.323Z,3.70
2022-12-27T01:51:55.471Z,2.90
2022-12-27T01:52:05.571Z,2.70
2022-12-27T01:52:15.597Z,2.70
2022-12-27T01:52:25.701Z,3.10
2022-12-27T01:52:35.815Z,3.00
2022-12-27T01:52:45.912Z,2.60
2022-12-27T01:52:56.079Z,2.40
2022-12-27T01:53:06.198Z,2.70
2022-12-27T01:53:16.323Z,2.60
2022-12-27T01:53:26.462Z,2.60
2022-12-27T01:53:36.590Z,2.80
2022-12-27T01:53:46.716Z,3.10
2022-12-27T01:53:56.819Z,3.40
2022-12-27T01:54:06.965Z,3.60
2022-12-27T01:54:17.062Z,3.60
2022-12-27T01:54:27.177Z,3.20
2022-12-27T01:54:37.320Z,2.50
2022-12-27T01:54:47.461Z,2.70
2022-12-27T01:54:57.557Z,3.00
2022-12-27T01:55:07.688Z,3.00
2022-12-27T01:55:17.818Z,2.70
2022-12-27T01:55:28.068Z,2.50
2022-12-27T01:55:37.993Z,2.50
2022-12-27T01:55:48.092Z,2.80
2022-12-27T01:55:58.203Z,2.70
2022-12-27T01:56:08.320Z,2.90
2022-12-27T01:56:18.451Z,2.80
2022-12-27T01:56:28.545Z,2.70
2022-12-27T01:56:38.652Z,2.50
2022-12-27T01:56:48.792Z,2.60
2022-12-27T01:56:58.825Z,2.50
2022-12-27T01:57:08.930Z,2.40
2022-12-27T01:57:19.071Z,2.40
2022-12-27T01:57:29.174Z,2.60
2022-12-27T01:57:39.288Z,3.10
2022-12-27T01:57:49.409Z,3.40
2022-12-27T01:57:59.533Z,3.20
2022-12-27T01:58:09.639Z,2.80
2022-12-27T01:58:19.768Z,2.40
2022-12-27T01:58:29.886Z,2.80
2022-12-27T01:58:39.992Z,3.00
2022-12-27T01:58:50.114Z,3.00
2022-12-27T01:59:00.253Z,2.70
2022-12-27T01:59:10.416Z,2.80
2022-12-27T01:59:20.531Z,3.20
2022-12-27T01:59:30.631Z,2.80
2022-12-27T01:59:40.766Z,2.70
2022-12-27T01:59:50.844Z,2.70
2022-12-27T02:00:00.984Z,3.10
2022-12-27T02:00:11.120Z,3.20
2022-12-27T02:00:21.221Z,3.20
2022-12-27T02:00:31.351Z,3.00
2022-12-27T02:00:41.490Z,2.90
2022-12-27T02:00:51.666Z,2.40
2022-12-27T02:01:01.691Z,2.60
2022-12-27T02:01:11.728Z,2.40
2022-12-27T02:01:21.925Z,2.50
2022-12-27T02:01:32.053Z,2.20
2022-12-27T02:01:42.149Z,2.20
2022-12-27T02:01:52.376Z,2.30
2022-12-27T02:02:02.304Z,2.40
2022-12-27T02:02:12.466Z,2.50
2022-12-27T02:02:22.687Z,2.30
2022-12-27T02:02:32.558Z,2.50
2022-12-27T02:02:42.581Z,2.40
2022-12-27T02:02:52.616Z,2.80
2022-12-27T02:03:02.823Z,2.90
2022-12-27T02:03:12.821Z,3.40
2022-12-27T02:03:22.941Z,3.40
2022-12-27T02:03:33.085Z,3.50
2022-12-27T02:03:43.193Z,2.80
2022-12-27T02:03:53.341Z,2.70
2022-12-27T02:04:03.459Z,2.70
2022-12-27T02:04:13.597Z,2.70
2022-12-27T02:04:23.706Z,2.60
2022-12-27T02:04:33.819Z,2.40
2022-12-27T02:04:43.954Z,2.30
2022-12-27T02:04:54.096Z,2.40
2022-12-27T02:05:04.238Z,2.20
2022-12-27T02:05:14.357Z,2.80
2022-12-27T02:05:24.448Z,2.60
2022-12-27T02:05:34.548Z,3.60
2022-12-27T02:05:44.632Z,3.30
2022-12-27T02:05:54.794Z,3.60
2022-12-27T02:06:04.923Z,3.10
2022-12-27T02:06:15.055Z,3.20
2022-12-27T02:06:25.180Z,3.10
2022-12-27T02:06:35.339Z,2.90
2022-12-27T02:06:45.489Z,3.20
2022-12-27T02:06:55.588Z,2.90
2022-12-27T02:07:05.682Z,3.10
2022-12-27T02:07:15.784Z,2.70
2022-12-27T02:07:25.884Z,2.70
2022-12-27T02:07:35.977Z,2.60
2022-12-27T02:07:46.100Z,2.60
2022-12-27T02:07:56.220Z,2.80
2022-12-27T02:08:06.415Z,2.90
2022-12-27T02:08:16.504Z,2.70
2022-12-27T02:08:26.598Z,2.50
2022-12-27T02:08:36.752Z,2.60
2022-12-27T02:08:46.879Z,3.10
2022-12-27T02:08:56.992Z,3.20
2022-12-27T02:09:07.148Z,3.50
2022-12-27T02:09:17.249Z,2.90
2022-12-27T02:09:27.358Z,2.90
2022-12-27T02:09:37.468Z,2.60
2022-12-27T02:09:47.597Z,2.70
2022-12-27T02:09:57.706Z,2.70
2022-12-27T02:10:07.825Z,2.90
2022-12-27T02:10:17.929Z,3.00
2022-12-27T02:10:28.050Z,3.10
2022-12-27T02:10:38.213Z,2.70
2022-12-27T02:10:48.308Z,2.50
2022-12-27T02:10:58.438Z,2.80
2022-12-27T02:11:08.549Z,3.20
2022-12-27T02:11:18.676Z,3.00
2022-12-27T02:11:28.820Z,2.90
2022-12-27T02:11:38.919Z,2.30
2022-12-27T02:11:49.029Z,2.60
2022-12-27T02:11:59.131Z,2.40
2022-12-27T02:12:09.279Z,2.70
2022-12-27T02:12:19.421Z,2.40
2022-12-27T02:12:29.545Z,2.90
2022-12-27T02:12:39.657Z,2.70
2022-12-27T02:12:49.775Z,2.80
2022-12-27T02:12:59.871Z,2.90
2022-12-27T02:13:09.982Z,2.90
2022-12-27T02:13:20.091Z,3.20
2022-12-27T02:13:30.217Z,3.20
2022-12-27T02:13:40.370Z,3.30
2022-12-27T02:13:50.485Z,2.70
2022-12-27T02:14:00.664Z,2.70
2022-12-27T02:14:10.681Z,3.00
2022-12-27T02:14:26.074Z,2.90
2022-12-27T02:14:31.760Z,2.50
2022-12-27T02:14:41.759Z,2.60
2022-12-27T02:14:51.867Z,2.80
2022-12-27T02:15:01.960Z,3.20
2022-12-27T02:15:12.118Z,3.30
2022-12-27T02:15:22.226Z,3.30
2022-12-27T02:15:32.345Z,2.80
2022-12-27T02:15:42.473Z,2.50
2022-12-27T02:15:52.576Z,2.70
2022-12-27T02:16:02.692Z,2.70
2022-12-27T02:16:12.811Z,2.60
2022-12-27T02:16:22.919Z,2.50
2022-12-27T02:16:33.081Z,2.40
2022-12-27T02:16:43.272Z,2.40
2022-12-27T02:16:53.257Z,2.40
2022-12-27T02:17:03.465Z,3.10
2022-12-27T02:17:13.452Z,3.50
2022-12-27T02:17:23.607Z,3.30
2022-12-27T02:17:33.720Z,2.90
2022-12-27T02:17:43.829Z,3.30
2022-12-27T02:17:53.983Z,3.20
2022-12-27T02:18:03.970Z,3.30
2022-12-27T02:18:14.089Z,2.90
2022-12-27T02:18:24.213Z,3.00